Time;durP1;ratioP1;P1;durP2;ratioP2;P2;SDS_P1;SDS_P2;PMS_P1;PMS_P2;Temp;Humidity;BMP_temperature;BMP_pressure;BME280_temperature;BME280_humidity;BME280_pressure;Samples;Min_cycle;Max_cycle;Signal;HPM_P1;HPM_P2
2022/09/30 00:00:16;;;;;;;3.13;1.20;;;;;;;10.39;100.00;100801.06;5029727;28;20194;-73
2022/09/30 00:02:41;;;;;;;1.70;1.10;;;;;;;10.27;100.00;100797.28;5025121;28;20246;-73
2022/09/30 00:05:07;;;;;;;2.40;1.73;;;;;;;10.03;100.00;100761.84;5026701;28;20757;-73
2022/09/30 00:07:32;;;;;;;2.03;1.30;;;;;;;10.27;100.00;100792.75;5047604;28;20521;-73
2022/09/30 00:09:57;;;;;;;1.87;1.30;;;;;;;10.19;100.00;100801.75;5049943;28;20556;-73
2022/09/30 00:12:23;;;;;;;2.07;1.40;;;;;;;10.23;100.00;100809.41;5033547;28;20206;-73
2022/09/30 00:14:48;;;;;;;2.60;1.57;;;;;;;9.76;100.00;100755.50;5035720;28;20671;-73
2022/09/30 00:17:14;;;;;;;1.70;1.30;;;;;;;9.32;100.00;100649.53;5055267;28;20285;-73
2022/09/30 00:19:39;;;;;;;2.37;1.33;;;;;;;10.10;100.00;100800.25;5073046;28;20229;-73
2022/09/30 00:22:05;;;;;;;1.83;1.30;;;;;;;9.73;100.00;100737.97;5056558;28;20194;-73
2022/09/30 00:24:30;;;;;;;2.17;1.40;;;;;;;10.21;100.00;100812.25;5057414;28;20333;-73
2022/09/30 00:26:55;;;;;;;4.50;1.47;;;;;;;10.32;100.00;100805.56;5071943;28;20179;-73
2022/09/30 00:29:21;;;;;;;2.47;1.40;;;;;;;9.13;100.00;100648.34;5068853;28;20266;-73
2022/09/30 00:31:46;;;;;;;3.00;1.30;;;;;;;9.17;100.00;100670.19;5040544;28;20275;-73
2022/09/30 00:34:12;;;;;;;1.57;1.10;;;;;;;9.85;100.00;100732.06;5027113;28;20243;-72
2022/09/30 00:36:51;;;;;;;3.97;1.30;;;;;;;10.46;100.00;100818.00;5044715;28;20190;-73
2022/09/30 00:39:25;;;;;;;1.43;1.10;;;;;;;10.43;100.00;100826.44;5051428;28;20625;-73
2022/09/30 00:41:54;;;;;;;1.67;1.10;;;;;;;9.84;100.00;100736.59;5026632;28;20453;-73
2022/09/30 00:44:45;;;;;;;1.23;1.13;;;;;;;10.20;100.00;100805.25;5037622;28;21386;-72
2022/09/30 00:47:42;;;;;;;2.77;1.20;;;;;;;9.60;100.00;100710.25;5030913;28;21213;-73
2022/09/30 00:50:23;;;;;;;1.33;1.20;;;;;;;10.22;100.00;100795.16;5009795;28;25862;-73
2022/09/30 00:53:06;;;;;;;2.20;1.00;;;;;;;10.41;100.00;100823.13;5019692;28;20857;-72
2022/09/30 00:55:43;;;;;;;1.53;1.00;;;;;;;10.07;100.00;100815.91;5029247;28;26751;-72
2022/09/30 00:58:14;;;;;;;1.40;1.03;;;;;;;9.10;100.00;100662.13;5040069;28;20437;-73
2022/09/30 01:00:40;;;;;;;1.80;1.10;;;;;;;10.23;100.00;100834.34;5045978;28;20549;-73
2022/09/30 01:03:06;;;;;;;3.00;1.27;;;;;;;10.11;100.00;100817.16;5049227;28;20440;-73
2022/09/30 01:05:33;;;;;;;1.47;1.03;;;;;;;8.88;100.00;100674.72;5062395;28;20715;-72
2022/09/30 01:08:02;;;;;;;4.20;1.30;;;;;;;8.98;100.00;100659.13;5026201;28;20818;-73
2022/09/30 01:10:28;;;;;;;1.57;1.00;;;;;;;9.93;100.00;100831.06;5049422;28;20457;-72
2022/09/30 01:12:54;;;;;;;3.63;1.17;;;;;;;9.10;100.00;100742.38;5052120;28;20506;-73
2022/09/30 01:15:29;;;;;;;2.40;1.17;;;;;;;9.68;100.00;100823.44;5060214;28;20190;-73
2022/09/30 01:18:11;;;;;;;2.00;1.10;;;;;;;9.10;100.00;100781.69;5031152;28;20870;-73
2022/09/30 01:21:01;;;;;;;3.10;1.03;;;;;;;9.48;100.00;100807.19;5061744;28;21049;-72
2022/09/30 01:23:48;;;;;;;2.10;1.00;;;;;;;9.01;100.00;100732.84;5076446;28;20524;-73
2022/09/30 01:27:19;;;;;;;2.10;1.10;;;;;;;9.25;100.00;100779.78;5065713;28;20435;-73
2022/09/30 01:30:02;;;;;;;2.20;1.07;;;;;;;9.64;100.00;100838.22;4962080;28;20816;-73
2022/09/30 01:32:55;;;;;;;2.20;1.00;;;;;;;9.55;100.00;100839.41;5036846;28;20484;-73
2022/09/30 01:35:47;;;;;;;2.03;1.17;;;;;;;9.54;100.00;100844.94;5051601;28;20948;-73
2022/09/30 01:38:34;;;;;;;2.03;1.30;;;;;;;9.56;100.00;100843.72;5048787;28;20441;-73
2022/09/30 01:41:25;;;;;;;2.20;1.00;;;;;;;9.45;100.00;100830.84;5052210;28;21026;-73
2022/09/30 01:44:04;;;;;;;1.97;1.20;;;;;;;9.18;100.00;100793.13;5050938;28;20506;-73
2022/09/30 01:46:48;;;;;;;2.47;1.40;;;;;;;9.49;100.00;100822.25;5054745;28;21031;-73
2022/09/30 01:49:26;;;;;;;1.43;0.90;;;;;;;9.47;100.00;100818.09;5063777;28;20449;-73
2022/09/30 01:52:05;;;;;;;1.50;1.20;;;;;;;9.34;100.00;100818.78;5040224;28;20813;-73
2022/09/30 01:54:44;;;;;;;1.20;1.10;;;;;;;9.25;100.00;100838.66;5045764;28;20432;-73
2022/09/30 01:57:23;;;;;;;1.67;1.10;;;;;;;8.56;100.00;100738.34;5050054;28;21570;-74
2022/09/30 02:00:00;;;;;;;1.73;1.00;;;;;;;8.60;100.00;100731.59;5053762;28;20447;-73
2022/09/30 02:02:29;;;;;;;1.43;0.97;;;;;;;8.44;100.00;100728.31;5033053;28;20480;-73
2022/09/30 02:05:34;;;;;;;1.63;1.20;;;;;;;8.72;100.00;100776.56;5054161;28;20949;-73
2022/09/30 02:08:06;;;;;;;2.07;1.20;;;;;;;8.10;100.00;100717.19;5046192;28;20438;-73
2022/09/30 02:10:55;;;;;;;1.70;0.90;;;;;;;8.28;100.00;100754.19;5033550;28;20985;-73
2022/09/30 02:13:31;;;;;;;2.13;1.03;;;;;;;8.96;100.00;100836.91;5034382;28;20875;-73
2022/09/30 02:16:11;;;;;;;3.10;1.30;;;;;;;8.52;100.00;100848.50;5045317;28;20853;-73
2022/09/30 02:19:04;;;;;;;2.20;1.30;;;;;;;8.42;100.00;100846.13;5077534;28;20440;-73
2022/09/30 02:21:37;;;;;;;3.50;1.07;;;;;;;7.76;100.00;100749.78;5035446;28;20871;-73
2022/09/30 02:24:06;;;;;;;1.10;1.00;;;;;;;7.84;100.00;100749.69;5072667;28;20418;-73
2022/09/30 02:26:38;;;;;;;1.60;1.00;;;;;;;7.77;100.00;100745.25;5073954;28;20446;-73
2022/09/30 02:29:09;;;;;;;1.67;1.00;;;;;;;8.07;100.00;100757.63;5041763;28;20441;-73
2022/09/30 02:31:40;;;;;;;2.20;1.13;;;;;;;7.94;100.00;100749.41;5057016;28;20980;-73
2022/09/30 02:34:21;;;;;;;1.40;1.10;;;;;;;8.49;100.00;100846.19;5047472;28;20437;-73
2022/09/30 02:36:55;;;;;;;1.73;1.20;;;;;;;8.87;100.00;100862.13;5044659;28;20440;-72
2022/09/30 02:39:41;;;;;;;1.80;1.27;;;;;;;8.87;100.00;100876.31;5050207;28;20463;-72
2022/09/30 02:42:15;;;;;;;2.80;0.93;;;;;;;8.93;100.00;100853.34;5042604;28;20464;-73
2022/09/30 02:44:41;;;;;;;1.70;1.17;;;;;;;8.33;100.00;100761.66;5031893;28;20441;-73
2022/09/30 02:47:36;;;;;;;2.20;1.00;;;;;;;8.13;100.00;100716.00;5065915;28;20493;-73
2022/09/30 02:50:07;;;;;;;2.57;1.30;;;;;;;9.10;100.00;100862.81;5075598;28;20655;-74
2022/09/30 02:52:51;;;;;;;2.67;1.20;;;;;;;9.18;100.00;100859.19;5054583;28;20564;-74
2022/09/30 02:55:54;;;;;;;1.80;1.30;;;;;;;9.07;100.00;100860.50;5035349;28;20530;-73
2022/09/30 02:58:24;;;;;;;1.07;0.90;;;;;;;8.27;100.00;100754.38;5027968;28;20432;-74
2022/09/30 03:00:51;;;;;;;2.30;1.20;;;;;;;8.19;100.00;100762.47;5028237;28;20467;-73
2022/09/30 03:03:25;;;;;;;1.40;1.10;;;;;;;8.87;100.00;100864.78;5029068;28;20480;-73
2022/09/30 03:05:51;;;;;;;1.93;1.10;;;;;;;8.99;100.00;100877.47;5048209;28;20447;-73
2022/09/30 03:08:16;;;;;;;1.93;1.10;;;;;;;8.91;100.00;100868.72;5044988;28;20456;-73
2022/09/30 03:10:43;;;;;;;2.20;1.17;;;;;;;8.10;100.00;100740.38;5043094;28;20499;-73
2022/09/30 03:13:29;;;;;;;1.67;1.20;;;;;;;8.82;100.00;100858.16;5025596;28;20838;-71
2022/09/30 03:16:16;;;;;;;2.90;1.30;;;;;;;9.13;100.00;100886.50;5045155;28;20444;-71
2022/09/30 03:18:59;;;;;;;5.03;1.23;;;;;;;8.35;100.00;100751.59;5068940;28;20936;-72
2022/09/30 03:21:52;;;;;;;1.97;1.70;;;;;;;9.07;100.00;100875.72;5051192;28;20457;-72
2022/09/30 03:24:40;;;;;;;2.10;1.90;;;;;;;8.66;100.00;100750.56;5053949;28;20945;-72
2022/09/30 03:27:24;;;;;;;2.67;2.13;;;;;;;9.35;100.00;100846.41;5058890;23;20593;-70
2022/09/30 03:30:04;;;;;;;4.10;2.67;;;;;;;9.34;100.00;100815.28;5018840;28;20449;-69
2022/09/30 03:32:53;;;;;;;5.37;2.80;;;;;;;9.60;100.00;100882.47;5020431;28;20561;-69
2022/09/30 03:35:40;;;;;;;3.90;3.00;;;;;;;9.52;100.00;100885.28;5028364;28;20442;-70
2022/09/30 03:38:23;;;;;;;4.63;3.40;;;;;;;9.60;100.00;100892.34;5027361;28;20920;-70
2022/09/30 03:40:57;;;;;;;8.47;3.20;;;;;;;8.83;100.00;100794.81;5027805;28;20427;-70
2022/09/30 03:43:36;;;;;;;5.43;3.10;;;;;;;9.15;100.00;100862.25;5003708;28;20825;-71
2022/09/30 03:46:15;;;;;;;3.00;2.70;;;;;;;8.93;100.00;100831.94;5000783;28;20466;-70
2022/09/30 03:48:44;;;;;;;2.90;2.60;;;;;;;9.53;100.00;100913.72;5018512;28;20795;-71
2022/09/30 03:51:09;;;;;;;5.10;3.13;;;;;;;9.36;100.00;100859.59;5007294;28;20489;-71
2022/09/30 03:53:40;;;;;;;3.07;2.43;;;;;;;9.00;100.00;100806.09;4999062;28;20951;-70
2022/09/30 03:56:06;;;;;;;3.97;2.57;;;;;;;8.81;100.00;100789.63;4998970;28;20753;-70
2022/09/30 03:58:31;;;;;;;2.83;2.53;;;;;;;8.83;100.00;100776.91;5014896;28;20538;-70
2022/09/30 04:00:57;;;;;;;2.70;2.50;;;;;;;9.29;100.00;100842.63;5004125;28;21418;-70
2022/09/30 04:03:23;;;;;;;4.70;2.77;;;;;;;9.29;100.00;100864.06;4999064;28;20725;-70
2022/09/30 04:05:48;;;;;;;3.20;2.47;;;;;;;9.63;100.00;100905.38;4987416;28;20443;-70
2022/09/30 04:08:15;;;;;;;3.30;2.27;;;;;;;9.51;100.00;100923.78;5010738;28;20220;-70
2022/09/30 04:10:42;;;;;;;2.60;1.83;;;;;;;8.74;100.00;100826.19;5005723;28;20222;-70
2022/09/30 04:13:08;;;;;;;2.27;1.87;;;;;;;8.68;100.00;100781.47;4999032;28;20510;-71
2022/09/30 04:15:35;;;;;;;2.80;1.90;;;;;;;9.40;100.00;100919.78;5001140;28;20521;-71
2022/09/30 04:18:01;;;;;;;1.80;1.70;;;;;;;9.06;100.00;100877.59;5001858;28;20942;-71
2022/09/30 04:20:26;;;;;;;2.53;2.20;;;;;;;9.64;100.00;100917.75;5017675;28;21041;-70
2022/09/30 04:22:52;;;;;;;2.30;2.10;;;;;;;8.01;100.00;100717.44;5025502;28;20799;-70
2022/09/30 04:25:17;;;;;;;3.33;2.00;;;;;;;8.39;100.00;100795.69;5025749;28;20227;-70
2022/09/30 04:27:42;;;;;;;2.90;2.10;;;;;;;8.45;100.00;100794.97;5017649;28;20220;-70
2022/09/30 04:30:08;;;;;;;2.20;1.67;;;;;;;8.18;100.00;100817.78;5019889;28;20184;-70
2022/09/30 04:32:34;;;;;;;2.00;1.80;;;;;;;8.17;100.00;100805.44;5021818;28;20212;-70
2022/09/30 04:34:59;;;;;;;3.27;2.30;;;;;;;8.72;100.00;100929.00;5019607;28;20446;-70
2022/09/30 04:37:25;;;;;;;2.03;1.70;;;;;;;8.68;100.00;100925.00;5013773;28;20840;-69
2022/09/30 04:39:50;;;;;;;2.30;2.10;;;;;;;8.45;100.00;100893.88;5019864;28;20188;-69
2022/09/30 04:42:17;;;;;;;2.03;1.80;;;;;;;8.08;100.00;100844.75;5017809;28;20200;-69
2022/09/30 04:44:42;;;;;;;2.37;2.00;;;;;;;8.59;100.00;100943.84;5013625;28;20219;-70
2022/09/30 04:47:08;;;;;;;3.37;1.87;;;;;;;8.31;100.00;100891.97;5010632;28;20829;-70
2022/09/30 04:49:33;;;;;;;2.20;1.80;;;;;;;8.59;100.00;100951.00;5023115;28;20200;-69
2022/09/30 04:51:59;;;;;;;2.00;1.80;;;;;;;8.53;100.00;100944.56;5028546;28;20208;-69
2022/09/30 04:54:24;;;;;;;2.70;2.10;;;;;;;7.80;100.00;100831.16;5015512;28;20223;-69
2022/09/30 04:56:49;;;;;;;2.87;2.33;;;;;;;8.13;100.00;100878.97;5020910;28;20612;-69
2022/09/30 04:59:15;;;;;;;2.87;2.00;;;;;;;8.48;100.00;100946.13;5025903;28;20228;-70
2022/09/30 05:01:43;;;;;;;3.37;1.90;;;;;;;8.64;100.00;100950.47;5023319;28;20629;-69
2022/09/30 05:04:10;;;;;;;3.30;2.40;;;;;;;7.93;100.00;100863.44;5025013;28;20683;-70
2022/09/30 05:06:36;;;;;;;2.27;2.07;;;;;;;7.59;100.00;100815.00;5005967;28;20491;-69
2022/09/30 05:09:02;;;;;;;2.50;2.30;;;;;;;7.78;100.00;100851.91;5028014;28;20493;-70
2022/09/30 05:11:28;;;;;;;3.53;2.07;;;;;;;8.37;100.00;100934.00;5025655;28;20371;-70
2022/09/30 05:13:54;;;;;;;2.10;1.90;;;;;;;8.41;100.00;100958.56;5027021;28;20216;-70
2022/09/30 05:16:20;;;;;;;1.97;1.77;;;;;;;8.29;100.00;100936.75;5027679;28;20585;-70
2022/09/30 05:18:47;;;;;;;5.73;2.43;;;;;;;7.42;100.00;100823.13;5021110;28;20195;-70
2022/09/30 05:21:19;;;;;;;3.00;1.80;;;;;;;7.46;100.00;100802.25;5025811;28;20434;-70
2022/09/30 05:23:45;;;;;;;2.10;1.90;;;;;;;8.15;100.00;100946.38;5024465;28;20938;-70
2022/09/30 05:26:11;;;;;;;2.60;2.10;;;;;;;8.13;100.00;100951.09;5026757;28;20474;-70
2022/09/30 05:28:36;;;;;;;3.40;2.30;;;;;;;7.50;100.00;100854.28;5026376;28;20453;-70
2022/09/30 05:31:05;;;;;;;2.23;2.03;;;;;;;7.97;100.00;100941.34;5027027;28;20215;-69
2022/09/30 05:33:31;;;;;;;2.67;2.47;;;;;;;8.01;100.00;100953.34;5009759;28;20630;-70
2022/09/30 05:36:07;;;;;;;5.03;1.90;;;;;;;7.47;100.00;100871.47;5025074;28;20809;-70
2022/09/30 05:38:33;;;;;;;2.80;2.50;;;;;;;7.42;100.00;100843.66;5024245;28;20981;-70
2022/09/30 05:41:06;;;;;;;2.50;2.20;;;;;;;8.29;100.00;100969.63;5023116;28;20447;-69
2022/09/30 05:43:32;;;;;;;2.97;2.67;;;;;;;8.22;100.00;100951.84;5023583;28;20191;-69
2022/09/30 05:45:57;;;;;;;2.37;2.17;;;;;;;8.11;100.00;100964.63;5023645;28;20462;-70
2022/09/30 05:48:24;;;;;;;4.73;2.60;;;;;;;8.48;100.00;100959.50;5009472;28;20184;-70
2022/09/30 05:50:54;;;;;;;5.30;3.40;;;;;;;8.44;100.00;100956.34;5025149;28;20188;-70
2022/09/30 05:53:22;;;;;;;6.80;3.90;;;;;;;7.95;100.00;100884.59;5009066;28;20461;-70
2022/09/30 05:55:49;;;;;;;4.87;3.57;;;;;;;8.10;100.00;100914.88;5024567;28;20446;-70
2022/09/30 05:58:15;;;;;;;5.10;4.30;;;;;;;8.11;100.00;100907.69;5023394;28;20489;-70
2022/09/30 06:00:43;;;;;;;7.57;4.50;;;;;;;8.27;100.00;100938.75;5022021;28;20450;-70
2022/09/30 06:03:08;;;;;;;4.60;4.20;;;;;;;8.10;100.00;100898.00;5020625;28;20447;-70
2022/09/30 06:05:34;;;;;;;7.33;5.03;;;;;;;8.14;100.00;100893.97;5022558;28;20791;-70
2022/09/30 06:07:59;;;;;;;5.57;4.33;;;;;;;7.59;100.00;100813.16;5023204;28;20188;-70
2022/09/30 06:10:25;;;;;;;5.23;4.10;;;;;;;8.77;100.00;100996.13;5026461;28;20181;-70
2022/09/30 06:12:51;;;;;;;4.40;3.90;;;;;;;8.96;100.00;101000.09;5025344;28;20200;-70
2022/09/30 06:15:16;;;;;;;5.40;4.07;;;;;;;8.29;100.00;100894.00;5027366;28;20188;-70
2022/09/30 06:17:42;;;;;;;4.50;4.10;;;;;;;8.44;100.00;100932.28;5008203;28;20747;-70
2022/09/30 06:20:11;;;;;;;4.43;3.60;;;;;;;8.71;100.00;100941.53;5025703;28;20194;-70
2022/09/30 06:22:37;;;;;;;4.57;4.17;;;;;;;8.78;100.00;100966.53;5025506;28;20474;-70
2022/09/30 06:25:04;;;;;;;4.20;3.80;;;;;;;9.19;100.00;101016.88;5008578;28;20451;-69
2022/09/30 06:27:30;;;;;;;5.60;4.53;;;;;;;8.90;100.00;100960.72;5026269;28;20255;-70
2022/09/30 06:29:56;;;;;;;3.90;3.50;;;;;;;8.92;100.00;100953.34;5024200;28;20466;-70
2022/09/30 06:32:23;;;;;;;5.07;4.57;;;;;;;9.37;100.00;101029.06;5024927;28;20210;-70
2022/09/30 06:34:48;;;;;;;7.73;5.10;;;;;;;8.36;100.00;100863.69;5025212;28;21149;-70
2022/09/30 06:37:14;;;;;;;5.73;4.70;;;;;;;8.90;100.00;100963.38;5025943;28;20462;-70
2022/09/30 06:39:40;;;;;;;4.70;4.30;;;;;;;9.53;100.00;101031.53;5007766;28;20275;-70
2022/09/30 06:42:06;;;;;;;5.10;4.60;;;;;;;8.82;100.00;100970.50;5026332;28;20530;-70
2022/09/30 06:44:32;;;;;;;6.63;5.17;;;;;;;9.49;100.00;101040.97;5023705;28;20192;-70
2022/09/30 06:46:58;;;;;;;5.90;4.77;;;;;;;9.42;100.00;101035.53;5024884;28;20466;-70
2022/09/30 06:49:24;;;;;;;5.50;4.80;;;;;;;8.97;100.00;100983.06;5025455;28;20197;-70
2022/09/30 06:51:50;;;;;;;6.87;4.97;;;;;;;9.21;100.00;101033.59;5020213;28;20467;-70
2022/09/30 06:54:15;;;;;;;4.50;4.10;;;;;;;9.28;100.00;101061.28;5026863;28;20193;-70
2022/09/30 06:56:41;;;;;;;4.63;4.20;;;;;;;8.63;100.00;100944.28;5029383;28;20447;-70
2022/09/30 06:59:07;;;;;;;4.47;4.07;;;;;;;9.44;100.00;101056.75;5027878;28;20185;-70
2022/09/30 07:01:32;;;;;;;5.23;4.70;;;;;;;8.95;100.00;100969.84;5028738;28;20709;-70
2022/09/30 07:03:58;;;;;;;6.53;4.50;;;;;;;8.88;100.00;100949.34;5028024;28;20454;-70
2022/09/30 07:06:25;;;;;;;6.10;4.53;;;;;;;9.59;100.00;101062.09;5028912;28;20212;-70
2022/09/30 07:08:50;;;;;;;7.80;4.80;;;;;;;9.62;100.00;101059.03;5006868;28;20239;-70
2022/09/30 07:11:16;;;;;;;4.60;3.73;;;;;;;9.08;100.00;100958.47;5026785;28;20959;-70
2022/09/30 07:13:44;;;;;;;4.87;4.37;;;;;;;9.80;100.00;101051.44;5010095;28;20184;-70
2022/09/30 07:16:12;;;;;;;6.20;4.37;;;;;;;9.11;100.00;100962.63;5023272;28;20220;-70
2022/09/30 07:18:38;;;;;;;5.50;5.00;;;;;;;9.70;100.00;101050.91;5025024;28;20514;-70
2022/09/30 07:21:04;;;;;;;9.00;4.47;;;;;;;9.42;100.00;100997.22;5027340;28;20899;-70
2022/09/30 07:23:30;;;;;;;6.47;4.87;;;;;;;9.26;100.00;100961.63;5010077;28;20438;-70
2022/09/30 07:26:03;;;;;;;5.73;4.27;;;;;;;9.83;100.00;101048.38;5008557;28;20208;-70
2022/09/30 07:28:32;;;;;;;4.87;4.43;;;;;;;9.33;100.00;100972.41;5027146;28;20427;-69
2022/09/30 07:31:00;;;;;;;5.90;5.03;;;;;;;9.85;100.00;101058.91;5008815;28;20450;-70
2022/09/30 07:33:30;;;;;;;5.03;4.53;;;;;;;9.68;100.00;101064.47;5023483;28;20435;-70
2022/09/30 07:35:57;;;;;;;4.83;4.30;;;;;;;9.55;100.00;101056.28;5027588;28;20466;-70
2022/09/30 07:38:25;;;;;;;5.70;5.20;;;;;;;9.36;100.00;101040.78;5023571;28;20439;-70
2022/09/30 07:40:57;;;;;;;10.00;9.00;;;;;;;9.09;100.00;101031.59;5026934;28;20512;-70
2022/09/30 07:43:23;;;;;;;11.53;10.33;;;;;;;8.89;100.00;101010.72;5020200;28;20427;-71
2022/09/30 07:45:49;;;;;;;11.43;10.30;;;;;;;8.18;100.00;100903.28;5026205;28;20575;-71
2022/09/30 07:48:41;;;;;;;12.57;10.67;;;;;;;9.24;100.00;101024.38;5027168;28;20431;-70
2022/09/30 07:51:08;;;;;;;13.03;11.63;;;;;;;8.70;100.00;100992.53;5007509;28;20606;-70
2022/09/30 07:53:33;;;;;;;13.60;11.43;;;;;;;8.67;100.00;100982.19;5023516;28;20995;-70
2022/09/30 07:56:04;;;;;;;11.40;10.30;;;;;;;8.81;100.00;100963.47;5007910;28;20451;-70
2022/09/30 07:58:29;;;;;;;11.87;10.10;;;;;;;9.41;100.00;101019.66;5025111;28;20289;-70
2022/09/30 08:00:54;;;;;;;9.60;8.40;;;;;;;9.09;100.00;100983.41;5025016;28;21048;-70
2022/09/30 08:03:20;;;;;;;12.50;9.53;;;;;;;9.56;100.00;101047.22;5010017;28;20198;-70
2022/09/30 08:05:47;;;;;;;8.90;8.10;;;;;;;9.63;100.00;101028.56;5020311;28;20537;-70
2022/09/30 08:08:14;;;;;;;10.20;7.90;;;;;;;9.94;100.00;101072.00;5025637;28;20199;-71
2022/09/30 08:10:39;;;;;;;14.40;8.27;;;;;;;9.92;100.00;101067.84;5026633;28;20536;-70
2022/09/30 08:13:05;;;;;;;9.40;7.87;;;;;;;9.84;100.00;101050.06;5027191;28;20989;-71
2022/09/30 08:15:30;;;;;;;11.87;8.03;;;;;;;9.95;100.00;101040.66;5021715;28;20192;-71
2022/09/30 08:17:56;;;;;;;12.67;7.27;;;;;;;9.89;100.00;101012.81;5024907;28;20951;-71
2022/09/30 08:20:21;;;;;;;15.00;7.90;;;;;;;9.84;100.00;101014.41;5023696;28;20310;-71
2022/09/30 08:22:50;;;;;;;10.87;7.30;;;;;;;10.11;100.00;101045.78;5026576;28;20188;-70
2022/09/30 08:25:16;;;;;;;9.97;7.60;;;;;;;9.44;100.00;100945.13;5029570;28;20657;-70
2022/09/30 08:27:41;;;;;;;13.40;9.10;;;;;;;10.14;100.00;101052.63;5023889;28;20481;-71
2022/09/30 08:30:07;;;;;;;13.67;8.40;;;;;;;10.13;100.00;101016.97;5031516;28;20237;-70
2022/09/30 08:32:33;;;;;;;15.77;10.17;;;;;;;9.83;100.00;100975.22;5029023;28;20688;-70
2022/09/30 08:34:58;;;;;;;9.70;8.70;;;;;;;10.02;100.00;100955.00;5028141;28;20443;-70
2022/09/30 08:37:23;;;;;;;13.73;9.43;;;;;;;10.57;100.00;101029.34;5030161;28;20211;-70
2022/09/30 08:39:49;;;;;;;14.17;9.57;;;;;;;9.48;100.00;100858.06;5013705;28;20195;-70
2022/09/30 08:42:35;;;;;;;14.43;10.10;;;;;;;10.80;100.00;101047.06;5014093;28;20188;-70
2022/09/30 08:45:15;;;;;;;16.87;10.70;;;;;;;10.74;100.00;101032.56;5029134;28;20180;-70
2022/09/30 08:47:40;;;;;;;15.33;11.20;;;;;;;10.96;100.00;101046.75;5029702;28;20599;-70
2022/09/30 08:50:28;;;;;;;13.77;9.70;;;;;;;10.36;100.00;100928.31;5029246;28;20457;-70
2022/09/30 08:52:59;;;;;;;12.40;9.27;;;;;;;10.53;100.00;100920.81;5028607;28;20283;-70
2022/09/30 08:55:38;;;;;;;13.63;9.80;;;;;;;11.45;100.00;101026.16;5030233;28;20929;-70
2022/09/30 08:58:05;;;;;;;10.63;8.80;;;;;;;10.27;100.00;100866.97;5012680;28;20832;-71
2022/09/30 09:00:32;;;;;;;11.60;8.57;;;;;;;10.75;100.00;100920.72;5027784;28;20824;-70
2022/09/30 09:02:59;;;;;;;8.47;7.47;;;;;;;11.13;100.00;100945.25;5022272;28;20999;-70
2022/09/30 09:05:45;;;;;;;9.13;7.63;;;;;;;11.68;100.00;101015.09;5030729;28;20510;-70
2022/09/30 09:08:42;;;;;;;14.30;8.03;;;;;;;11.10;100.00;100934.91;5029279;28;20451;-70
2022/09/30 09:11:43;;;;;;;8.33;6.27;;;;;;;11.86;100.00;101010.03;5028157;28;20474;-70
2022/09/30 09:14:34;;;;;;;5.83;4.57;;;;;;;11.77;100.00;101000.44;4985625;28;20435;-70
2022/09/30 09:17:11;;;;;;;5.80;4.50;;;;;;;11.71;100.00;100990.50;5013834;28;20474;-70
2022/09/30 09:20:13;;;;;;;6.43;4.40;;;;;;;11.80;100.00;100969.66;5031162;28;20950;-71
2022/09/30 09:22:41;;;;;;;4.50;3.53;;;;;;;11.50;100.00;100895.59;5027823;28;20855;-70
2022/09/30 09:25:16;;;;;;;4.13;3.13;;;;;;;12.19;100.00;101007.38;5030621;28;20435;-70
2022/09/30 09:27:53;;;;;;;4.03;3.57;;;;;;;12.14;100.00;100998.28;5063747;22;20504;-73
2022/09/30 09:30:25;;;;;;;3.33;2.20;;;;;;;11.86;100.00;100982.31;5078526;28;20407;-72
2022/09/30 09:32:54;;;;;;;4.03;2.67;;;;;;;11.86;100.00;100967.03;5051626;28;20503;-72
2022/09/30 09:35:29;;;;;;;3.30;2.17;;;;;;;12.10;100.00;101002.41;5052533;28;20956;-73
2022/09/30 09:38:24;;;;;;;3.70;2.47;;;;;;;11.79;100.00;100922.31;5079956;28;20448;-73
2022/09/30 09:41:18;;;;;;;5.50;2.90;;;;;;;12.37;100.00;100990.63;5057607;28;20934;-73
2022/09/30 09:43:47;;;;;;;3.60;2.90;;;;;;;12.52;100.00;100995.81;5057009;28;20958;-73
2022/09/30 09:46:43;;;;;;;4.17;2.40;;;;;;;12.37;100.00;100939.53;5073389;28;20444;-73
2022/09/30 09:49:22;;;;;;;3.50;2.83;;;;;;;12.70;100.00;100995.19;5074160;28;20417;-73
2022/09/30 09:52:12;;;;;;;5.10;2.50;;;;;;;12.74;100.00;100990.22;5057456;28;20975;-72
2022/09/30 09:54:40;;;;;;;4.70;3.80;;;;;;;12.98;100.00;100994.09;5074723;28;20521;-73
2022/09/30 09:57:08;;;;;;;4.67;4.20;;;;;;;12.39;100.00;100912.44;5077883;28;20453;-73
2022/09/30 09:59:34;;;;;;;4.77;4.27;;;;;;;13.01;100.00;100990.97;5075792;28;20515;-73
2022/09/30 10:02:00;;;;;;;6.00;4.77;;;;;;;13.17;100.00;100989.69;5058408;28;20425;-73
2022/09/30 10:04:29;;;;;;;4.80;4.40;;;;;;;12.39;100.00;100880.97;5080926;28;20435;-73
2022/09/30 10:06:58;;;;;;;6.50;4.23;;;;;;;13.19;100.00;100991.16;5052105;28;20240;-72
2022/09/30 10:10:04;;;;;;;4.40;3.87;;;;;;;13.05;100.00;100990.34;5058074;28;20440;-73
2022/09/30 10:12:29;;;;;;;4.10;3.50;;;;;;;13.33;100.00;100995.44;5058881;28;20473;-72
2022/09/30 10:15:02;;;;;;;9.30;3.00;;;;;;;12.86;100.00;100932.00;5076826;28;20475;-72
2022/09/30 10:17:36;;;;;;;4.10;3.17;;;;;;;12.96;100.00;100991.63;5056292;28;20203;-72
2022/09/30 10:20:06;;;;;;;3.13;2.60;;;;;;;13.15;100.00;100997.97;5075906;28;20424;-73
2022/09/30 10:22:32;;;;;;;2.60;2.27;;;;;;;13.17;100.00;100982.44;5076387;28;20420;-72
2022/09/30 10:25:18;;;;;;;2.90;2.10;;;;;;;13.26;100.00;100996.53;5076508;28;20459;-72
2022/09/30 10:27:59;;;;;;;2.47;2.20;;;;;;;13.24;100.00;100967.06;5047834;28;20469;-73
2022/09/30 10:30:37;;;;;;;4.70;2.57;;;;;;;13.49;100.00;100978.00;5070629;28;21188;-74
2022/09/30 10:33:15;;;;;;;3.30;2.67;;;;;;;12.89;100.00;100848.13;5049747;28;20530;-74
2022/09/30 10:35:54;;;;;;;3.10;2.80;;;;;;;13.02;100.00;100891.16;5068767;28;20497;-73
2022/09/30 10:38:20;;;;;;;3.10;2.60;;;;;;;13.47;100.00;100961.19;5051458;28;20929;-74
2022/09/30 10:40:50;;;;;;;3.80;3.40;;;;;;;13.65;100.00;100965.03;5071183;28;20953;-74
2022/09/30 10:43:31;;;;;;;4.40;2.80;;;;;;;12.84;100.00;100847.94;5073014;28;20449;-73
2022/09/30 10:46:02;;;;;;;5.37;2.80;;;;;;;13.62;100.00;100952.81;5051176;28;20791;-74
2022/09/30 10:48:30;;;;;;;3.20;2.90;;;;;;;13.34;100.00;100875.06;5065753;28;20444;-74
2022/09/30 10:50:56;;;;;;;3.80;3.10;;;;;;;13.42;100.00;100861.31;5055369;28;20528;-74
2022/09/30 10:53:24;;;;;;;3.33;3.03;;;;;;;13.86;100.00;100966.59;5071332;28;20524;-73
2022/09/30 10:55:53;;;;;;;3.70;3.40;;;;;;;13.98;100.00;100975.66;5052849;28;20190;-73
2022/09/30 10:58:57;;;;;;;5.87;3.90;;;;;;;14.25;100.00;100955.50;5056638;28;20984;-75
2022/09/30 11:01:39;;;;;;;5.27;4.60;;;;;;;13.39;100.00;100866.31;4980502;28;20451;-74
2022/09/30 11:04:31;;;;;;;7.07;4.20;;;;;;;13.99;100.00;100979.97;4970268;28;20432;-73
2022/09/30 11:07:20;;;;;;;4.73;3.90;;;;;;;13.59;100.00;100876.97;5051319;28;21022;-74
2022/09/30 11:09:54;;;;;;;5.43;3.90;;;;;;;14.69;100.00;100967.22;5048518;28;20456;-75
2022/09/30 11:12:29;;;;;;;4.60;4.00;;;;;;;13.84;100.00;100842.78;5067490;28;20484;-74
2022/09/30 11:15:17;;;;;;;4.03;3.50;;;;;;;14.72;100.00;100951.59;5060952;28;20447;-75
2022/09/30 11:18:00;;;;;;;3.20;2.90;;;;;;;14.22;100.00;100844.53;5066725;28;20461;-74
2022/09/30 11:20:53;;;;;;;3.90;3.47;;;;;;;14.77;100.00;100932.84;5049838;28;20942;-74
2022/09/30 11:23:37;;;;;;;3.17;2.83;;;;;;;14.16;100.00;100832.75;5036348;28;20452;-75
2022/09/30 11:26:34;;;;;;;3.10;1.90;;;;;;;14.92;100.00;100915.22;5054875;28;20788;-75
2022/09/30 11:29:17;;;;;;;4.33;2.70;;;;;;;14.74;100.00;100930.59;5052023;28;20441;-74
2022/09/30 11:31:51;;;;;;;3.43;2.30;;;;;;;15.00;100.00;100921.38;5060588;28;20496;-75
2022/09/30 11:34:42;;;;;;;2.70;2.23;;;;;;;14.69;100.00;100910.50;5041961;28;20804;-75
2022/09/30 11:37:29;;;;;;;1.90;1.80;;;;;;;15.01;100.00;100909.50;5064374;28;20481;-73
2022/09/30 11:40:28;;;;;;;2.50;1.70;;;;;;;14.96;100.00;100910.19;5066227;28;20440;-74
2022/09/30 11:43:08;;;;;;;6.13;2.13;;;;;;;14.91;100.00;100900.06;5071720;28;20424;-74
2022/09/30 11:45:45;;;;;;;6.57;2.40;;;;;;;15.07;100.00;100903.19;5054306;28;20443;-71
2022/09/30 11:48:25;;;;;;;2.47;2.07;;;;;;;14.53;100.00;100840.09;5034877;28;20461;-74